createdAt,value
2023-02-27T00:00:59.143Z,96374.28
2023-02-27T00:03:26.433Z,96372.88
2023-02-27T00:05:53.926Z,96361.53
2023-02-27T00:08:20.758Z,96375.16
2023-02-27T00:10:47.635Z,96364.03
2023-02-27T00:13:14.564Z,96371.72
2023-02-27T00:15:41.543Z,96370.50
2023-02-27T00:18:08.545Z,96358.53
2023-02-27T00:20:38.385Z,96371.56
2023-02-27T00:23:06.586Z,96367.19
2023-02-27T00:25:34.811Z,96367.19
2023-02-27T00:28:02.143Z,96363.41
2023-02-27T00:30:29.145Z,96353.31
2023-02-27T00:32:56.139Z,96371.69
2023-02-27T00:35:24.210Z,96354.88
2023-02-27T00:37:51.408Z,96348.44
2023-02-27T00:40:18.472Z,96351.88
2023-02-27T00:42:46.385Z,96356.78
2023-02-27T00:45:13.633Z,96362.63
2023-02-27T00:47:40.748Z,96355.28
2023-02-27T00:50:10.340Z,96358.03
2023-02-27T00:52:37.212Z,96368.97
2023-02-27T00:55:04.882Z,96373.88
2023-02-27T00:57:31.888Z,96369.28
2023-02-27T00:59:58.919Z,96367.72
2023-02-27T01:02:25.882Z,96362.19
2023-02-27T01:04:55.953Z,96365.34
2023-02-27T01:07:24.370Z,96376.38
2023-02-27T01:09:51.288Z,96362.38
2023-02-27T01:12:18.252Z,96374.50
2023-02-27T01:14:45.132Z,96388.22
2023-02-27T01:17:12.543Z,96363.47
2023-02-27T01:19:39.610Z,96389.72
2023-02-27T01:22:06.908Z,96366.78
2023-02-27T01:24:34.001Z,96371.47
2023-02-27T01:27:00.992Z,96389.06
2023-02-27T01:29:27.904Z,96377.56
2023-02-27T01:31:54.894Z,96381.81
2023-02-27T01:34:21.735Z,96381.41
2023-02-27T01:36:48.584Z,96382.84
2023-02-27T01:39:16.337Z,96400.16
2023-02-27T01:41:43.236Z,96408.25
2023-02-27T01:44:13.056Z,96399.94
2023-02-27T01:46:41.102Z,96409.31
2023-02-27T01:49:32.622Z,96415.13
2023-02-27T01:52:06.489Z,96417.63
2023-02-27T01:54:39.506Z,96418.16
2023-02-27T01:57:07.371Z,96433.25
2023-02-27T01:59:36.151Z,96432.63
2023-02-27T02:02:09.492Z,96435.38
2023-02-27T02:04:39.314Z,96429.50
2023-02-27T02:07:13.984Z,96428.47
2023-02-27T02:09:53.144Z,96433.91
2023-02-27T02:12:25.145Z,96423.09
2023-02-27T02:14:52.149Z,96438.16
2023-02-27T02:17:31.677Z,96431.38
2023-02-27T02:20:07.665Z,96427.44
2023-02-27T02:22:46.344Z,96434.53
2023-02-27T02:25:36.045Z,96435.16
2023-02-27T02:28:59.832Z,96424.31
2023-02-27T02:32:04.242Z,96417.34
2023-02-27T02:35:08.597Z,96429.84
2023-02-27T02:37:48.884Z,96419.16
2023-02-27T02:40:20.556Z,96434.34
2023-02-27T02:43:06.264Z,96426.09
2023-02-27T02:45:39.007Z,96433.81
2023-02-27T02:48:28.429Z,96437.03
2023-02-27T02:51:06.242Z,96434.34
2023-02-27T02:53:47.111Z,96434.94
2023-02-27T02:56:24.187Z,96433.38
2023-02-27T02:59:36.749Z,96439.22
2023-02-27T03:02:11.270Z,96429.97
2023-02-27T03:04:46.716Z,96419.88
2023-02-27T03:07:28.925Z,96424.34
2023-02-27T03:10:00.911Z,96420.16
2023-02-27T03:12:30.484Z,96429.53
2023-02-27T03:15:06.543Z,96437.75
2023-02-27T03:17:47.579Z,96436.72
2023-02-27T03:20:29.594Z,96451.03
2023-02-27T03:23:04.956Z,96445.94
2023-02-27T03:25:33.976Z,96458.66
2023-02-27T03:28:06.041Z,96469.88
2023-02-27T03:30:38.092Z,96470.13
2023-02-27T03:33:14.471Z,96471.72
2023-02-27T03:35:58.720Z,96474.78
2023-02-27T03:38:49.146Z,96464.66
2023-02-27T03:41:34.687Z,96468.00
2023-02-27T03:44:47.018Z,96483.16
2023-02-27T03:47:14.002Z,96492.72
2023-02-27T03:49:41.004Z,96491.72
2023-02-27T03:52:08.854Z,96487.94
2023-02-27T03:54:46.968Z,96492.00
2023-02-27T03:57:15.399Z,96496.56
2023-02-27T03:59:43.285Z,96496.34
2023-02-27T04:02:10.780Z,96489.59
2023-02-27T04:04:39.408Z,96498.78
2023-02-27T04:07:37.039Z,96504.34
2023-02-27T04:10:28.564Z,96513.81
2023-02-27T04:13:20.185Z,96521.16
2023-02-27T04:16:00.873Z,96523.88
2023-02-27T04:19:04.799Z,96532.94
2023-02-27T04:21:47.844Z,96536.19
2023-02-27T04:24:30.977Z,96528.22
2023-02-27T04:27:26.946Z,96538.88
2023-02-27T04:30:00.875Z,96545.56
2023-02-27T04:32:44.014Z,96552.06
2023-02-27T04:35:20.756Z,96542.31
2023-02-27T04:37:58.542Z,96549.00
2023-02-27T04:40:33.911Z,96551.88
2023-02-27T04:43:04.458Z,96560.78
2023-02-27T04:45:35.557Z,96573.78
2023-02-27T04:48:11.583Z,96587.00
2023-02-27T04:50:44.526Z,96595.44
2023-02-27T04:53:20.576Z,96580.31
2023-02-27T04:55:52.089Z,96594.59
2023-02-27T04:58:25.280Z,96603.41
2023-02-27T05:00:59.515Z,96617.25
2023-02-27T05:03:33.672Z,96615.78
2023-02-27T05:06:01.977Z,96613.34
2023-02-27T05:08:41.843Z,96611.69
2023-02-27T05:11:15.411Z,96608.16
2023-02-27T05:13:49.285Z,96619.28
2023-02-27T05:16:27.226Z,96638.34
2023-02-27T05:18:56.033Z,96650.13
2023-02-27T05:21:39.156Z,96647.69
2023-02-27T05:24:19.374Z,96626.50
2023-02-27T05:27:07.689Z,96651.34
2023-02-27T05:29:46.788Z,96661.72
2023-02-27T05:32:21.007Z,96684.56
2023-02-27T05:35:09.252Z,96699.97
2023-02-27T05:37:48.085Z,96702.56
2023-02-27T05:40:21.877Z,96718.38
2023-02-27T05:43:04.874Z,96733.63
2023-02-27T05:45:34.824Z,96761.53
2023-02-27T05:48:08.247Z,96795.34
2023-02-27T05:50:37.924Z,96796.47
2023-02-27T05:53:10.092Z,96813.53
2023-02-27T05:55:48.358Z,96797.00
2023-02-27T05:58:39.784Z,96812.13
2023-02-27T06:01:08.842Z,96824.13
2023-02-27T06:03:37.837Z,96842.84
2023-02-27T06:06:08.187Z,96858.16
2023-02-27T06:08:35.594Z,96865.16
2023-02-27T06:11:02.976Z,96857.47
2023-02-27T06:13:29.868Z,96867.53
2023-02-27T06:15:56.788Z,96865.59
2023-02-27T06:18:23.743Z,96846.69
2023-02-27T06:20:51.236Z,96845.34
2023-02-27T06:23:18.793Z,96849.69
2023-02-27T06:25:45.902Z,96826.81
2023-02-27T06:28:12.950Z,96827.84
2023-02-27T06:30:40.533Z,96827.81
2023-02-27T06:33:07.674Z,96823.34
2023-02-27T06:35:34.668Z,96798.53
2023-02-27T06:38:01.619Z,96778.84
2023-02-27T06:40:28.587Z,96782.03
2023-02-27T06:42:55.443Z,96802.41
2023-02-27T06:45:24.324Z,96799.53
2023-02-27T06:47:51.256Z,96788.22
2023-02-27T06:50:18.960Z,96803.69
2023-02-27T06:52:45.965Z,96806.38
2023-02-27T06:55:13.128Z,96785.25
2023-02-27T06:57:40.091Z,96776.59
2023-02-27T07:00:07.773Z,96799.75
2023-02-27T07:02:34.674Z,96800.53
2023-02-27T07:05:08.253Z,96788.59
2023-02-27T07:07:38.228Z,96794.94
2023-02-27T07:10:09.530Z,96811.38
2023-02-27T07:12:36.883Z,96801.50
2023-02-27T07:15:04.726Z,96814.38
2023-02-27T07:17:31.851Z,96809.97
2023-02-27T07:19:58.734Z,96809.59
2023-02-27T07:22:25.694Z,96801.84
2023-02-27T07:24:52.962Z,96815.13
2023-02-27T07:27:19.890Z,96799.56
2023-02-27T07:29:46.846Z,96819.59
2023-02-27T07:32:13.878Z,96799.97
2023-02-27T07:34:40.795Z,96799.97
2023-02-27T07:37:08.212Z,96817.09
2023-02-27T07:39:35.286Z,96822.16
2023-02-27T07:42:02.278Z,96801.78
2023-02-27T07:44:29.250Z,96805.72
2023-02-27T07:46:56.155Z,96824.50
2023-02-27T07:49:23.258Z,96824.06
2023-02-27T07:51:50.227Z,96816.75
2023-02-27T07:54:17.362Z,96847.88
2023-02-27T07:56:44.333Z,96836.28
2023-02-27T07:59:11.375Z,96835.56
2023-02-27T08:01:38.430Z,96832.84
2023-02-27T08:04:05.648Z,96830.97
2023-02-27T08:06:32.771Z,96836.31
2023-02-27T08:09:00.560Z,96823.38
2023-02-27T08:11:27.863Z,96822.00
2023-02-27T08:14:00.454Z,96834.19
2023-02-27T08:16:29.272Z,96851.59
2023-02-27T08:18:56.959Z,96839.16
2023-02-27T08:21:23.924Z,96862.22
2023-02-27T08:23:51.535Z,96862.91
2023-02-27T08:26:18.592Z,96870.44
2023-02-27T08:28:46.199Z,96857.56
2023-02-27T08:31:13.304Z,96866.41
2023-02-27T08:33:40.407Z,96863.06
2023-02-27T08:36:08.245Z,96871.94
2023-02-27T08:38:35.358Z,96833.94
2023-02-27T08:41:03.539Z,96868.03
2023-02-27T08:43:30.436Z,96870.94
2023-02-27T08:45:57.522Z,96880.56
2023-02-27T08:48:24.946Z,96877.59
2023-02-27T08:50:52.594Z,96880.53
2023-02-27T08:53:19.772Z,96874.88
2023-02-27T08:55:51.245Z,96894.22
2023-02-27T08:58:20.408Z,96888.81
2023-02-27T09:00:47.517Z,96905.69
2023-02-27T09:03:14.604Z,96908.19
2023-02-27T09:05:42.555Z,96897.91
2023-02-27T09:08:09.840Z,96901.97
2023-02-27T09:10:36.948Z,96898.50
2023-02-27T09:13:03.914Z,96908.66
2023-02-27T09:15:32.589Z,96905.63
2023-02-27T09:18:03.226Z,96918.56
2023-02-27T09:20:31.820Z,96914.91
2023-02-27T09:22:59.910Z,96910.13
2023-02-27T09:25:27.920Z,96914.44
2023-02-27T09:27:55.797Z,96922.66
2023-02-27T09:30:23.886Z,96914.13
2023-02-27T09:32:51.433Z,96924.31
2023-02-27T09:35:20.553Z,96936.13
2023-02-27T09:37:48.359Z,96934.38
2023-02-27T09:40:27.444Z,96934.03
2023-02-27T09:43:01.144Z,96934.50
2023-02-27T09:45:31.306Z,96935.44
2023-02-27T09:48:13.450Z,96939.72
2023-02-27T09:50:44.943Z,96933.41
2023-02-27T09:53:17.279Z,96942.66
2023-02-27T09:55:46.048Z,96939.69
2023-02-27T09:58:39.051Z,96932.31
2023-02-27T10:01:14.540Z,96923.97
2023-02-27T10:03:59.884Z,96935.41
2023-02-27T10:06:34.001Z,96931.72
2023-02-27T10:09:16.360Z,96929.06
2023-02-27T10:12:07.541Z,96926.31
2023-02-27T10:14:50.625Z,96918.13
2023-02-27T10:17:34.970Z,96888.03
2023-02-27T10:20:06.841Z,96910.91
2023-02-27T10:22:42.080Z,96920.69
2023-02-27T10:25:30.675Z,96929.53
2023-02-27T10:28:09.027Z,96905.56
2023-02-27T10:30:36.465Z,96932.00
2023-02-27T10:33:34.625Z,96912.00
2023-02-27T10:36:03.643Z,96909.72
2023-02-27T10:38:41.566Z,96910.94
2023-02-27T10:41:13.032Z,96916.88
2023-02-27T10:43:57.910Z,96907.69
2023-02-27T10:46:32.245Z,96916.53
2023-02-27T10:49:00.709Z,96889.47
2023-02-27T10:51:27.946Z,96905.69
2023-02-27T10:54:19.707Z,96907.59
2023-02-27T10:56:50.984Z,96891.63
2023-02-27T10:59:28.291Z,96890.66
2023-02-27T11:01:59.172Z,96896.63
2023-02-27T11:04:37.056Z,96897.22
2023-02-27T11:07:11.620Z,96905.66
2023-02-27T11:09:38.682Z,96897.28
2023-02-27T11:12:27.746Z,96882.13
2023-02-27T11:14:57.519Z,96870.34
2023-02-27T11:17:26.456Z,96883.09
2023-02-27T11:19:55.433Z,96901.19
2023-02-27T11:22:26.054Z,96870.59
2023-02-27T11:25:09.486Z,96881.00
2023-02-27T11:27:36.456Z,96887.66
2023-02-27T11:30:25.955Z,96885.63
2023-02-27T11:32:55.355Z,96883.69
2023-02-27T11:35:30.367Z,96874.47
2023-02-27T11:38:01.275Z,96853.06
2023-02-27T11:40:32.726Z,96870.22
2023-02-27T11:43:17.248Z,96860.88
2023-02-27T11:46:15.443Z,96881.13
2023-02-27T11:48:48.449Z,96869.31
2023-02-27T11:51:24.955Z,96825.81
2023-02-27T11:54:16.892Z,96876.13
2023-02-27T11:56:48.554Z,96862.06
2023-02-27T11:59:40.744Z,96865.56
2023-02-27T12:02:16.387Z,96878.91
2023-02-27T12:04:51.031Z,96871.75
2023-02-27T12:07:41.727Z,96879.31
2023-02-27T12:10:18.795Z,96880.69
2023-02-27T12:13:02.609Z,96885.00
2023-02-27T12:15:43.041Z,96880.13
2023-02-27T12:18:26.990Z,96884.38
2023-02-27T12:21:02.685Z,96889.78
2023-02-27T12:24:07.611Z,96876.63
2023-02-27T12:26:52.843Z,96888.47
2023-02-27T12:29:29.056Z,96894.47
2023-02-27T12:32:14.426Z,96888.41
2023-02-27T12:34:52.854Z,96890.41
2023-02-27T12:37:25.317Z,96888.38
2023-02-27T12:39:55.917Z,96867.25
2023-02-27T12:42:38.049Z,96889.91
2023-02-27T12:45:19.761Z,96889.84
2023-02-27T12:48:00.589Z,96888.34
2023-02-27T12:50:51.349Z,96900.97
2023-02-27T12:53:52.129Z,96894.09
2023-02-27T12:56:27.458Z,96881.97
2023-02-27T12:58:57.483Z,96895.31
2023-02-27T13:01:45.458Z,96886.75
2023-02-27T13:04:35.139Z,96884.56
2023-02-27T13:07:08.631Z,96870.56
2023-02-27T13:09:54.215Z,96890.81
2023-02-27T13:12:36.423Z,96897.72
2023-02-27T13:15:06.413Z,96885.19
2023-02-27T13:17:52.151Z,96884.69
2023-02-27T13:20:22.073Z,96884.88
2023-02-27T13:22:55.733Z,96895.63
2023-02-27T13:25:24.062Z,96874.69
2023-02-27T13:28:00.260Z,96893.09
2023-02-27T13:30:36.934Z,96893.94
2023-02-27T13:33:22.639Z,96891.97
2023-02-27T13:36:27.219Z,96884.81
2023-02-27T13:38:56.053Z,96892.19
2023-02-27T13:41:28.811Z,96889.06
2023-02-27T13:44:19.958Z,96868.91
2023-02-27T13:46:47.221Z,96886.50
2023-02-27T13:49:28.272Z,96892.47
2023-02-27T13:51:59.373Z,96895.75
2023-02-27T13:54:36.395Z,96897.78
2023-02-27T13:57:17.475Z,96879.69
2023-02-27T13:59:53.165Z,96888.63
2023-02-27T14:02:31.779Z,96878.97
2023-02-27T14:05:03.391Z,96892.09
2023-02-27T14:07:47.476Z,96891.25
2023-02-27T14:10:21.807Z,96872.28
2023-02-27T14:12:48.878Z,96890.91
2023-02-27T14:15:24.706Z,96895.44
2023-02-27T14:18:14.172Z,96883.47
2023-02-27T14:20:42.689Z,96891.34
2023-02-27T14:23:20.788Z,96879.94
2023-02-27T14:25:53.280Z,96886.72
2023-02-27T14:28:26.329Z,96880.31
2023-02-27T14:30:58.902Z,96871.84
2023-02-27T14:33:41.514Z,96894.91
2023-02-27T14:36:15.929Z,96897.78
2023-02-27T14:38:43.397Z,96875.72
2023-02-27T14:41:28.796Z,96885.72
2023-02-27T14:43:58.058Z,96890.72
2023-02-27T14:46:38.829Z,96900.25
2023-02-27T14:49:28.986Z,96863.63
2023-02-27T14:51:56.735Z,96871.59
2023-02-27T14:57:17.581Z,96900.31
2023-02-27T14:59:48.557Z,96898.97
2023-02-27T15:02:23.991Z,96884.31
2023-02-27T15:05:03.674Z,96907.44
2023-02-27T15:07:33.851Z,96905.63
2023-02-27T15:10:04.959Z,96915.03
2023-02-27T15:12:36.980Z,96914.84
2023-02-27T15:15:06.177Z,96910.00
2023-02-27T15:17:43.034Z,96932.19
2023-02-27T15:20:25.569Z,96928.19
2023-02-27T15:22:52.530Z,96937.56
2023-02-27T15:25:40.083Z,96941.84
2023-02-27T15:28:26.379Z,96943.41
2023-02-27T15:30:55.574Z,96948.75
2023-02-27T15:33:31.669Z,96936.41
2023-02-27T15:35:59.495Z,96950.75
2023-02-27T15:38:34.930Z,96944.94
2023-02-27T15:41:03.631Z,96947.25
2023-02-27T15:43:31.508Z,96950.59
2023-02-27T15:45:58.668Z,96960.41
2023-02-27T15:48:25.949Z,96939.72
2023-02-27T15:50:57.312Z,96967.84
2023-02-27T15:53:26.380Z,96975.44
2023-02-27T15:55:55.530Z,96974.84
2023-02-27T15:58:25.263Z,96978.38
2023-02-27T16:01:01.066Z,96980.47
2023-02-27T16:03:37.242Z,96976.06
2023-02-27T16:06:12.894Z,96987.59
2023-02-27T16:08:45.624Z,96971.91
2023-02-27T16:11:24.581Z,96988.81
2023-02-27T16:13:52.542Z,96994.16
2023-02-27T16:16:31.823Z,97006.38
2023-02-27T16:19:04.601Z,97006.19
2023-02-27T16:21:32.217Z,96993.44
2023-02-27T16:24:21.759Z,97014.75
2023-02-27T16:26:53.179Z,97020.16
2023-02-27T16:29:23.011Z,97022.91
2023-02-27T16:31:56.276Z,97014.53
2023-02-27T16:34:46.961Z,97026.53
2023-02-27T16:37:21.658Z,97038.88
2023-02-27T16:39:54.927Z,97034.59
2023-02-27T16:42:22.227Z,97051.19
2023-02-27T16:44:49.226Z,97051.72
2023-02-27T16:47:16.084Z,97074.16
2023-02-27T16:49:44.597Z,97079.25
2023-02-27T16:52:12.321Z,97078.53
2023-02-27T16:54:39.245Z,97081.34
2023-02-27T16:57:06.231Z,97074.56
2023-02-27T16:59:40.429Z,97080.19
2023-02-27T17:02:12.711Z,97094.94
2023-02-27T17:04:39.746Z,97104.97
2023-02-27T17:07:06.960Z,97056.25
2023-02-27T17:09:35.203Z,97104.00
2023-02-27T17:12:02.172Z,97098.72
2023-02-27T17:14:29.091Z,97111.44
2023-02-27T17:16:56.145Z,97108.22
2023-02-27T17:19:23.955Z,97111.00
2023-02-27T17:21:51.836Z,97124.59
2023-02-27T17:24:18.883Z,97096.75
2023-02-27T17:26:45.865Z,97129.75
2023-02-27T17:29:14.995Z,97128.19
2023-02-27T17:31:42.690Z,97125.63
2023-02-27T17:34:09.566Z,97134.84
2023-02-27T17:36:37.406Z,97142.56
2023-02-27T17:39:05.508Z,97140.69
2023-02-27T17:41:33.212Z,97156.63
2023-02-27T17:44:01.728Z,97146.06
2023-02-27T17:46:31.320Z,97158.63
2023-02-27T17:49:02.034Z,97165.88
2023-02-27T17:51:31.131Z,97163.84
2023-02-27T17:54:01.447Z,97167.13
2023-02-27T17:56:28.900Z,97174.63
2023-02-27T17:58:55.994Z,97171.19
2023-02-27T18:01:25.944Z,97181.75
2023-02-27T18:03:54.802Z,97167.78
2023-02-27T18:06:23.144Z,97181.09
2023-02-27T18:08:50.321Z,97182.13
2023-02-27T18:11:19.569Z,97187.53
2023-02-27T18:13:47.081Z,97184.56
2023-02-27T18:16:14.688Z,97199.00
2023-02-27T18:18:43.045Z,97180.84
2023-02-27T18:21:14.373Z,97189.59
2023-02-27T18:23:41.927Z,97184.94
2023-02-27T18:26:27.167Z,97202.66
2023-02-27T18:29:01.521Z,97160.06
2023-02-27T18:31:32.597Z,97206.41
2023-02-27T18:34:06.788Z,97203.06
2023-02-27T18:36:37.874Z,97222.16
2023-02-27T18:39:06.359Z,97220.03
2023-02-27T18:41:33.821Z,97234.22
2023-02-27T18:44:00.817Z,97228.44
2023-02-27T18:46:28.623Z,97239.25
2023-02-27T18:48:56.096Z,97240.19
2023-02-27T18:51:23.171Z,97245.59
2023-02-27T18:53:50.797Z,97248.25
2023-02-27T18:56:23.325Z,97244.25
2023-02-27T18:58:51.528Z,97259.44
2023-02-27T19:01:29.528Z,97264.94
2023-02-27T19:04:04.191Z,97257.88
2023-02-27T19:06:34.928Z,97256.44
2023-02-27T19:09:05.266Z,97262.56
2023-02-27T19:11:36.029Z,97250.25
2023-02-27T19:14:05.823Z,97259.41
2023-02-27T19:16:33.284Z,97249.22
2023-02-27T19:19:03.183Z,97263.50
2023-02-27T19:21:31.502Z,97260.84
2023-02-27T19:23:58.711Z,97268.13
2023-02-27T19:26:25.988Z,97273.53
2023-02-27T19:28:56.408Z,97280.75
2023-02-27T19:31:24.808Z,97282.44
2023-02-27T19:33:52.224Z,97291.16
2023-02-27T19:36:21.692Z,97294.50
2023-02-27T19:38:49.445Z,97295.97
2023-02-27T19:41:17.552Z,97295.53
2023-02-27T19:43:45.271Z,97298.97
2023-02-27T19:46:18.771Z,97304.78
2023-02-27T19:48:46.645Z,97304.53
2023-02-27T19:51:15.323Z,97304.09
2023-02-27T19:53:45.495Z,97309.72
2023-02-27T19:56:15.773Z,97312.34
2023-02-27T19:58:43.399Z,97301.41
2023-02-27T20:01:10.960Z,97314.28
2023-02-27T20:03:43.167Z,97311.31
2023-02-27T20:06:23.289Z,97324.44
2023-02-27T20:08:51.399Z,97326.44
2023-02-27T20:11:20.747Z,97327.28
2023-02-27T20:13:49.392Z,97324.84
2023-02-27T20:16:19.248Z,97326.88
2023-02-27T20:18:46.614Z,97338.72
2023-02-27T20:21:19.658Z,97337.69
2023-02-27T20:23:47.072Z,97337.13
2023-02-27T20:26:14.599Z,97343.13
2023-02-27T20:28:42.100Z,97338.63
2023-02-27T20:31:10.245Z,97337.34
2023-02-27T20:33:37.508Z,97346.84
2023-02-27T20:36:06.256Z,97347.53
2023-02-27T20:38:34.168Z,97351.47
2023-02-27T20:41:01.284Z,97344.75
2023-02-27T20:43:29.218Z,97358.09
2023-02-27T20:45:56.397Z,97356.97
2023-02-27T20:48:23.425Z,97361.00
2023-02-27T20:50:50.553Z,97365.19
2023-02-27T20:53:17.567Z,97364.69
2023-02-27T20:55:50.689Z,97376.63
2023-02-27T20:58:17.601Z,97366.72
2023-02-27T21:00:44.512Z,97357.06
2023-02-27T21:03:11.686Z,97376.53
2023-02-27T21:05:46.494Z,97357.63
2023-02-27T21:08:13.615Z,97385.38
2023-02-27T21:10:41.284Z,97393.66
2023-02-27T21:13:08.371Z,97395.16
2023-02-27T21:15:36.366Z,97401.03
2023-02-27T21:18:04.196Z,97399.91
2023-02-27T21:20:31.596Z,97407.72
2023-02-27T21:22:58.506Z,97402.50
2023-02-27T21:25:27.244Z,97406.78
2023-02-27T21:28:02.227Z,97397.63
2023-02-27T21:30:30.141Z,97389.53
2023-02-27T21:32:58.168Z,97394.53
2023-02-27T21:35:25.069Z,97389.09
2023-02-27T21:37:53.605Z,97395.28
2023-02-27T21:40:20.916Z,97409.53
2023-02-27T21:42:48.383Z,97400.91
2023-02-27T21:45:15.731Z,97400.00
2023-02-27T21:47:42.922Z,97410.31
2023-02-27T21:50:13.752Z,97402.28
2023-02-27T21:52:44.682Z,97415.34
2023-02-27T21:55:12.276Z,97431.47
2023-02-27T21:57:40.616Z,97420.53
2023-02-27T22:00:11.554Z,97428.06
2023-02-27T22:02:39.419Z,97376.63
2023-02-27T22:05:07.317Z,97419.09
2023-02-27T22:07:34.229Z,97415.19
2023-02-27T22:10:01.095Z,97416.22
2023-02-27T22:12:28.281Z,97431.19
2023-02-27T22:14:55.229Z,97426.75
2023-02-27T22:17:22.130Z,97424.00
2023-02-27T22:19:49.058Z,97429.25
2023-02-27T22:22:15.901Z,97432.34
2023-02-27T22:24:42.815Z,97440.47
2023-02-27T22:27:09.765Z,97437.22
2023-02-27T22:29:38.472Z,97435.59
2023-02-27T22:32:06.613Z,97438.25
2023-02-27T22:34:34.144Z,97445.59
2023-02-27T22:37:00.955Z,97456.91
2023-02-27T22:39:27.908Z,97456.03
2023-02-27T22:41:56.779Z,97458.25
2023-02-27T22:44:23.994Z,97460.53
2023-02-27T22:46:50.985Z,97447.25
2023-02-27T22:49:23.020Z,97464.97
2023-02-27T22:51:51.983Z,97467.50
2023-02-27T22:54:20.913Z,97457.44
2023-02-27T22:56:50.280Z,97461.97
2023-02-27T22:59:17.215Z,97444.06
2023-02-27T23:01:44.198Z,97450.88
2023-02-27T23:04:11.460Z,97458.59
2023-02-27T23:06:40.364Z,97460.00
2023-02-27T23:09:13.700Z,97469.09
2023-02-27T23:11:40.648Z,97470.25
2023-02-27T23:14:07.783Z,97478.72
2023-02-27T23:16:35.215Z,97481.91
2023-02-27T23:19:02.796Z,97484.56
2023-02-27T23:21:35.635Z,97476.56
2023-02-27T23:24:07.995Z,97479.44
2023-02-27T23:26:39.402Z,97479.44
2023-02-27T23:29:07.139Z,97470.41
2023-02-27T23:31:35.800Z,97483.78
2023-02-27T23:34:06.899Z,97479.75
2023-02-27T23:36:35.289Z,97493.88
2023-02-27T23:39:03.955Z,97499.28
2023-02-27T23:41:31.480Z,97456.13
2023-02-27T23:43:58.714Z,97491.91
2023-02-27T23:46:30.210Z,97518.31
2023-02-27T23:48:58.665Z,97519.28
2023-02-27T23:51:25.904Z,97524.56
2023-02-27T23:53:53.461Z,97530.72
2023-02-27T23:56:26.412Z,97532.69
2023-02-27T23:58:56.026Z,97537.53
